Alzingen, Luxembourg
Current Conditions -  °F | °C
As of 10:50 AM on Friday 28 Nov 2014 (Local Time) from ELLX Reporting Station
Clear Clear  
Wind Chill: 39°   Ceiling: Unl
Heat Index: 43°   Visibility: 2.8mi
Dew Point: 41°   Wind: 7mph
Humidity: 93%   Direction: 70°ENE
Pressure: 29.74"   Gusts: NA
Location:  49.57°N, 6.16°E
Report Text: ELLX 280950Z 07006KT 030V100 4500 NSC 06/05 Q1007 NOSIG
Loading
Personal Weather Stations






























Interactive Weather Map New forecast layout! Learn more

10-Day Weather Forecast

Advertisements
Track Severe Weather on mobile